Stations météo

réclame
Mon MeteoGroup
Blahammaren A, Suède (2210): Température de l'air & dewpoint: 19.05.2018 12:00:00 - 25.05.2018 12:00:00 (CEST)Blahammaren A, Suède (2210): Vitesse du vent & gusts: 19.05.2018 12:00:00 - 25.05.2018 12:00:00 (CEST)Blahammaren A, Suède (2210): Direction du vent: 19.05.2018 12:00:00 - 25.05.2018 12:00:00 (CEST)Blahammaren A, Suède (2210): reduced air pressure: 19.05.2018 12:00:00 - 25.05.2018 12:00:00 (CEST)Blahammaren A, Suède (2210): visibility: 19.05.2018 12:00:00 - 25.05.2018 12:00:00 (CEST)
Date & Time tt [°C] td [°C] ff [km/h] ff [knt] fx [km/h] fx [knt] dd ppp [hPa] vv [km]
25.05.2018 12:00:00 11,9 5,1 18 10 35 19 NNW - -
25.05.2018 11:00:00 11,7 6,2 22 12 32 17 NNW - -
25.05.2018 10:00:00 13,3 2,2 9 5 13 7 NW - -
25.05.2018 09:00:00 12,8 1,2 8 5 14 8 SW - -
25.05.2018 08:00:00 12,7 0,8 11 6 15 8 SW - -
25.05.2018 07:00:00 12,6 0,7 10 5 12 7 SW - -
25.05.2018 06:00:00 11,9 0,9 10 6 12 7 S - -
25.05.2018 05:00:00 11,2 -0,3 11 6 14 7 S - -
25.05.2018 04:00:00 11,1 -1,0 10 6 12 7 S - -
25.05.2018 03:00:00 11,3 -2,5 8 4 10 5 S - -
25.05.2018 02:00:00 9,7 -2,0 8 4 10 5 S - -
25.05.2018 01:00:00 9,9 0,5 3 2 7 4 ENE - -
25.05.2018 00:00:00 10,8 -0,7 5 3 9 5 NE - -
24.05.2018 23:00:00 12,0 -1,9 4 2 13 7 NE - -
24.05.2018 22:00:00 12,8 -3,1 10 5 17 9 NNE - -
24.05.2018 21:00:00 12,6 0,0 14 8 23 13 N - -
24.05.2018 20:00:00 13,7 -0,7 21 11 26 14 NNW - -
24.05.2018 19:00:00 14,4 0,3 20 11 26 14 NNW - -
24.05.2018 18:00:00 15,1 0,9 21 11 35 19 N - -
24.05.2018 17:00:00 16,3 2,3 23 13 37 20 NNW - -
24.05.2018 16:00:00 16,8 2,0 11 6 22 12 NW - -
24.05.2018 15:00:00 16,9 1,3 8 4 27 14 NW - -
24.05.2018 14:00:00 17,5 2,3 12 7 30 16 W - -
24.05.2018 13:00:00 16,1 3,2 16 8 29 16 SSW - -
24.05.2018 12:00:00 15,4 3,2 18 10 30 16 SW - -
24.05.2018 11:00:00 14,0 3,5 20 11 29 16 SSW - -
24.05.2018 10:00:00 12,4 3,1 23 12 34 18 SSW - -
24.05.2018 09:00:00 11,6 3,1 23 13 35 19 S - -
24.05.2018 08:00:00 10,7 2,5 25 13 33 18 S - -
24.05.2018 07:00:00 9,2 1,8 16 9 24 13 S - -
24.05.2018 06:00:00 8,6 1,0 12 6 18 10 SSE - -
24.05.2018 05:00:00 7,9 0,4 11 6 17 9 SSE - -
24.05.2018 04:00:00 7,3 -0,7 11 6 18 10 S - -
24.05.2018 03:00:00 7,4 -0,8 11 6 15 8 SSE - -
24.05.2018 02:00:00 7,0 -0,9 13 7 18 10 SSE - -
24.05.2018 01:00:00 7,4 -2,3 10 6 13 7 SSE - -
24.05.2018 00:00:00 8,7 -3,2 10 6 16 8 SSE - -
23.05.2018 23:00:00 7,6 -1,6 8 5 9 5 S - -
23.05.2018 22:00:00 8,0 -1,5 4 2 10 6 WNW - -
23.05.2018 21:00:00 9,0 -0,3 11 6 17 9 N - -
23.05.2018 20:00:00 10,0 -1,1 13 7 22 12 NW - -
23.05.2018 19:00:00 11,0 0,4 11 6 28 15 NNW - -
23.05.2018 18:00:00 11,0 0,7 13 7 27 15 WNW - -
23.05.2018 17:00:00 11,3 1,0 9 5 27 15 WNW - -
23.05.2018 16:00:00 9,8 0,7 8 5 18 10 SSW - -
23.05.2018 15:00:00 10,3 0,3 7 4 14 8 WSW - -
23.05.2018 14:00:00 8,6 -1,5 6 3 15 8 N - -
23.05.2018 13:00:00 7,9 -2,4 4 2 15 8 ESE - -
23.05.2018 12:00:00 6,4 -2,0 10 5 23 12 NW - -
23.05.2018 11:00:00 6,7 -4,1 3 2 14 8 S - -
23.05.2018 10:00:00 5,1 -5,0 7 4 12 6 ESE - -
23.05.2018 09:00:00 5,0 -1,5 3 2 10 5 E - -
23.05.2018 08:00:00 3,6 -0,8 3 2 8 4 E 1019,2 3,7
23.05.2018 07:00:00 1,9 0,9 4 2 9 5 E - -
23.05.2018 06:00:00 1,2 1,1 6 3 10 5 ENE - -
23.05.2018 05:00:00 -0,3 -0,3 7 4 11 6 N - -
23.05.2018 04:00:00 -0,2 -0,2 10 5 16 8 NNE - -
23.05.2018 03:00:00 -0,2 -0,2 7 4 20 11 N - -
23.05.2018 02:00:00 0,3 0,3 20 11 27 15 N - -
23.05.2018 01:00:00 1,1 1,1 20 11 31 17 N - -
23.05.2018 00:00:00 1,5 1,5 27 15 33 18 NNW - -
22.05.2018 23:00:00 2,1 2,1 22 12 27 15 NNW - -
22.05.2018 22:00:00 2,2 2,2 19 10 27 15 NNW - -
22.05.2018 21:00:00 2,7 2,7 23 12 36 19 NNW - -
22.05.2018 20:00:00 3,4 3,3 24 13 33 18 NNW - -
22.05.2018 19:00:00 3,9 3,8 25 14 32 18 NNW - -
22.05.2018 18:00:00 4,2 4,1 27 15 35 19 NW - -
22.05.2018 17:00:00 4,3 4,2 31 17 43 23 NNW - -
22.05.2018 16:00:00 4,8 4,5 37 20 45 24 NNW - -
22.05.2018 15:00:00 6,7 4,7 33 18 41 22 NNW - -
22.05.2018 14:00:00 8,2 5,3 32 17 41 22 NNW - -
22.05.2018 13:00:00 8,6 5,0 32 17 42 23 NNW - -
22.05.2018 12:00:00 9,4 5,0 30 16 40 22 NNW - -
22.05.2018 11:00:00 8,6 5,3 31 17 40 22 NNW - -
22.05.2018 10:00:00 8,3 5,9 26 14 34 18 NNW - -
22.05.2018 09:00:00 10,7 1,8 21 11 28 15 NNW - -
22.05.2018 08:00:00 10,4 1,5 14 7 19 11 N - -
22.05.2018 07:00:00 10,6 2,2 9 5 14 8 NW - -
22.05.2018 06:00:00 7,9 2,6 13 7 18 10 SW - -
22.05.2018 05:00:00 7,4 1,5 17 9 21 11 SSW - -
22.05.2018 04:00:00 7,9 0,8 17 9 22 12 S - -
22.05.2018 03:00:00 8,8 0,0 18 10 26 14 S - -
22.05.2018 02:00:00 9,5 0,7 17 9 21 12 SSW - -
22.05.2018 01:00:00 11,1 1,1 9 5 11 6 S - -
22.05.2018 00:00:00 12,5 -0,1 8 4 11 6 SSE - -
21.05.2018 23:00:00 12,4 0,2 8 4 13 7 SSE - -
21.05.2018 22:00:00 13,9 0,5 6 4 9 5 SSE - -
21.05.2018 21:00:00 12,0 3,2 9 5 15 8 E - -
21.05.2018 20:00:00 12,5 3,7 6 3 21 11 N - -
21.05.2018 19:00:00 15,4 2,2 11 6 26 14 WNW - -
21.05.2018 18:00:00 16,3 -5,5 27 14 38 20 SSW - -
21.05.2018 17:00:00 16,5 -2,6 22 12 41 22 SW - -
21.05.2018 16:00:00 16,6 -2,0 19 10 34 18 S - -
21.05.2018 15:00:00 15,4 -1,2 21 11 32 17 SSW - -
21.05.2018 14:00:00 15,0 -1,6 19 10 30 16 SW - -
21.05.2018 13:00:00 14,4 -0,1 17 9 27 14 SSW - -
21.05.2018 12:00:00 14,2 0,4 14 8 24 13 SSE - -
21.05.2018 11:00:00 12,8 -0,8 9 5 16 9 SE - -
21.05.2018 10:00:00 11,2 -0,6 8 4 22 12 S - -
21.05.2018 09:00:00 9,9 -0,9 16 9 31 17 SW - -
21.05.2018 08:00:00 9,7 -0,5 24 13 33 18 S - -
21.05.2018 07:00:00 8,8 -0,5 23 12 40 22 SSE - -
21.05.2018 06:00:00 8,3 -1,2 31 17 45 24 S - -
21.05.2018 05:00:00 7,7 -2,1 28 15 40 22 S - -
21.05.2018 04:00:00 7,9 -2,4 27 15 36 20 S - -
21.05.2018 03:00:00 7,8 -2,5 26 14 36 20 S - -
21.05.2018 02:00:00 8,7 -2,6 27 15 42 23 SSW - -
21.05.2018 01:00:00 9,0 -2,0 33 18 46 25 S - -
21.05.2018 00:00:00 8,6 -2,4 36 20 48 26 S - -
20.05.2018 23:00:00 9,4 -3,5 37 20 50 27 S - -
20.05.2018 22:00:00 9,3 -3,3 38 20 49 26 S - -
20.05.2018 21:00:00 11,0 -3,9 37 20 51 28 SSW - -
20.05.2018 20:00:00 12,0 -3,4 29 16 40 22 SW - -
20.05.2018 19:00:00 13,0 -5,1 27 15 41 22 SW - -
20.05.2018 18:00:00 13,8 -4,4 27 15 43 23 SW - -
20.05.2018 17:00:00 14,1 -5,1 32 17 45 24 SW - -
20.05.2018 16:00:00 13,9 -5,3 21 11 49 26 WSW - -
20.05.2018 15:00:00 14,2 -4,1 31 17 45 24 SW - -
20.05.2018 14:00:00 13,6 -3,2 29 16 51 27 SW - -
20.05.2018 13:00:00 13,5 -3,3 37 20 51 28 SSW - -
20.05.2018 12:00:00 13,1 -3,2 30 16 46 25 SSW - -
20.05.2018 11:00:00 11,4 -2,1 31 17 50 27 SSW - -
20.05.2018 10:00:00 10,8 -1,9 40 22 51 27 S - -
20.05.2018 09:00:00 9,7 -0,5 33 18 46 25 S - -
20.05.2018 08:00:00 9,0 -0,6 31 17 41 22 S - -
20.05.2018 07:00:00 7,9 -0,1 28 15 35 19 S - -
20.05.2018 06:00:00 5,3 0,1 21 12 28 15 SSE - -
20.05.2018 05:00:00 3,6 -0,2 18 10 28 15 SSE - -
20.05.2018 04:00:00 3,0 -0,1 19 10 28 15 SSE - -
20.05.2018 03:00:00 3,6 -0,2 22 12 31 17 SSE - -
20.05.2018 02:00:00 3,4 -0,1 17 9 24 13 SE - -
20.05.2018 01:00:00 4,0 0,0 16 9 19 11 SE - -
20.05.2018 00:00:00 4,1 -0,3 13 7 18 10 SE - -
19.05.2018 23:00:00 5,6 0,4 5 3 7 4 SE - -
19.05.2018 22:00:00 5,3 0,7 3 2 13 7 NNW - -
19.05.2018 21:00:00 6,0 0,5 11 6 23 12 N - -
19.05.2018 20:00:00 6,8 0,2 16 9 31 17 NNW - -
19.05.2018 19:00:00 7,3 0,7 26 14 36 19 NW - -
19.05.2018 18:00:00 8,4 -0,4 21 11 38 20 NW - -
19.05.2018 17:00:00 8,5 -0,3 27 14 36 19 NW - -
19.05.2018 16:00:00 9,3 -1,2 19 10 28 15 NW - -
19.05.2018 15:00:00 9,7 -1,1 10 5 29 16 WSW - -
19.05.2018 14:00:00 8,5 -2,2 15 8 34 19 WNW - -
19.05.2018 13:00:00 8,8 -2,8 14 8 29 16 WSW - -
19.05.2018 12:00:00 8,1 -2,8 16 8 32 17 WNW - -

tt = Température de l'air
td = dewpoint
ff = Vitesse du vent
fx = gusts
dd = Direction du vent
ppp = reduced air pressure
vv = visibility

stations d'obs. à proximité